sensor_id;sensor_type;location;lat;lon;timestamp;P1;durP1;ratioP1;P2;durP2;ratioP2
34673;SDS011;20879;55.668;37.858;2023-01-23T00:01:35;30.35;;;16.63;;
34673;SDS011;20879;55.668;37.858;2023-01-23T00:04:04;29.67;;;16.85;;
34673;SDS011;20879;55.668;37.858;2023-01-23T00:06:36;28.77;;;15.43;;
34673;SDS011;20879;55.668;37.858;2023-01-23T00:09:11;27.10;;;15.73;;
34673;SDS011;20879;55.668;37.858;2023-01-23T00:11:41;26.95;;;14.82;;
34673;SDS011;20879;55.668;37.858;2023-01-23T00:14:10;31.20;;;16.05;;
34673;SDS011;20879;55.668;37.858;2023-01-23T00:16:44;28.60;;;16.35;;
34673;SDS011;20879;55.668;37.858;2023-01-23T00:19:15;28.77;;;16.40;;
34673;SDS011;20879;55.668;37.858;2023-01-23T00:21:47;25.48;;;15.13;;
34673;SDS011;20879;55.668;37.858;2023-01-23T00:24:18;28.50;;;14.90;;
34673;SDS011;20879;55.668;37.858;2023-01-23T00:26:47;29.80;;;14.80;;
34673;SDS011;20879;55.668;37.858;2023-01-23T00:29:16;26.83;;;15.35;;
34673;SDS011;20879;55.668;37.858;2023-01-23T00:31:52;24.02;;;13.52;;
34673;SDS011;20879;55.668;37.858;2023-01-23T00:34:21;24.98;;;15.07;;
34673;SDS011;20879;55.668;37.858;2023-01-23T00:36:52;26.88;;;15.05;;
34673;SDS011;20879;55.668;37.858;2023-01-23T00:39:22;29.10;;;14.85;;
34673;SDS011;20879;55.668;37.858;2023-01-23T00:41:51;23.60;;;13.80;;
34673;SDS011;20879;55.668;37.858;2023-01-23T00:44:20;26.65;;;14.80;;
34673;SDS011;20879;55.668;37.858;2023-01-23T00:46:50;26.98;;;14.93;;
34673;SDS011;20879;55.668;37.858;2023-01-23T00:49:25;24.98;;;13.70;;
34673;SDS011;20879;55.668;37.858;2023-01-23T00:54:34;23.38;;;13.02;;
34673;SDS011;20879;55.668;37.858;2023-01-23T00:57:03;24.13;;;13.32;;
34673;SDS011;20879;55.668;37.858;2023-01-23T00:59:39;23.38;;;14.32;;
34673;SDS011;20879;55.668;37.858;2023-01-23T01:02:14;22.33;;;13.63;;
34673;SDS011;20879;55.668;37.858;2023-01-23T01:04:45;27.65;;;15.32;;
34673;SDS011;20879;55.668;37.858;2023-01-23T01:07:16;27.35;;;15.55;;
34673;SDS011;20879;55.668;37.858;2023-01-23T01:09:53;28.55;;;15.63;;
34673;SDS011;20879;55.668;37.858;2023-01-23T01:12:29;27.17;;;15.27;;
34673;SDS011;20879;55.668;37.858;2023-01-23T01:14:59;26.35;;;14.35;;
34673;SDS011;20879;55.668;37.858;2023-01-23T01:17:30;22.47;;;13.83;;
34673;SDS011;20879;55.668;37.858;2023-01-23T01:20:00;25.45;;;15.02;;
34673;SDS011;20879;55.668;37.858;2023-01-23T01:22:37;25.23;;;13.30;;
34673;SDS011;20879;55.668;37.858;2023-01-23T01:25:09;24.30;;;13.43;;
34673;SDS011;20879;55.668;37.858;2023-01-23T01:27:48;16.17;;;10.07;;
34673;SDS011;20879;55.668;37.858;2023-01-23T01:30:19;26.52;;;13.43;;
34673;SDS011;20879;55.668;37.858;2023-01-23T01:32:50;28.00;;;14.30;;
34673;SDS011;20879;55.668;37.858;2023-01-23T01:35:27;25.40;;;14.23;;
34673;SDS011;20879;55.668;37.858;2023-01-23T01:37:58;25.30;;;13.57;;
34673;SDS011;20879;55.668;37.858;2023-01-23T01:40:33;26.42;;;14.27;;
34673;SDS011;20879;55.668;37.858;2023-01-23T01:43:16;26.30;;;13.48;;
34673;SDS011;20879;55.668;37.858;2023-01-23T01:46:02;25.83;;;14.13;;
34673;SDS011;20879;55.668;37.858;2023-01-23T01:48:38;26.73;;;13.75;;
34673;SDS011;20879;55.668;37.858;2023-01-23T01:51:17;27.90;;;13.52;;
34673;SDS011;20879;55.668;37.858;2023-01-23T01:53:54;25.23;;;13.35;;
34673;SDS011;20879;55.668;37.858;2023-01-23T01:56:31;27.15;;;14.05;;
34673;SDS011;20879;55.668;37.858;2023-01-23T01:59:17;27.70;;;14.32;;
34673;SDS011;20879;55.668;37.858;2023-01-23T02:01:50;27.40;;;14.05;;
34673;SDS011;20879;55.668;37.858;2023-01-23T02:04:22;29.17;;;12.55;;
34673;SDS011;20879;55.668;37.858;2023-01-23T02:06:52;28.35;;;13.02;;
34673;SDS011;20879;55.668;37.858;2023-01-23T02:09:26;26.38;;;14.23;;
34673;SDS011;20879;55.668;37.858;2023-01-23T02:11:58;29.70;;;14.15;;
34673;SDS011;20879;55.668;37.858;2023-01-23T02:14:29;34.50;;;15.60;;
34673;SDS011;20879;55.668;37.858;2023-01-23T02:16:58;38.70;;;16.27;;
34673;SDS011;20879;55.668;37.858;2023-01-23T02:19:32;33.45;;;16.20;;
34673;SDS011;20879;55.668;37.858;2023-01-23T02:22:12;32.97;;;15.40;;
34673;SDS011;20879;55.668;37.858;2023-01-23T02:24:53;29.90;;;15.30;;
34673;SDS011;20879;55.668;37.858;2023-01-23T02:27:32;26.42;;;12.50;;
34673;SDS011;20879;55.668;37.858;2023-01-23T02:30:04;39.67;;;15.80;;
34673;SDS011;20879;55.668;37.858;2023-01-23T02:32:35;42.35;;;17.65;;
34673;SDS011;20879;55.668;37.858;2023-01-23T02:35:11;40.33;;;16.30;;
34673;SDS011;20879;55.668;37.858;2023-01-23T02:37:51;35.35;;;15.23;;
34673;SDS011;20879;55.668;37.858;2023-01-23T02:40:29;35.00;;;16.85;;
34673;SDS011;20879;55.668;37.858;2023-01-23T02:43:07;39.35;;;17.65;;
34673;SDS011;20879;55.668;37.858;2023-01-23T02:45:44;36.22;;;16.58;;
34673;SDS011;20879;55.668;37.858;2023-01-23T02:48:14;44.78;;;17.35;;
34673;SDS011;20879;55.668;37.858;2023-01-23T02:50:49;38.97;;;17.73;;
34673;SDS011;20879;55.668;37.858;2023-01-23T02:53:18;34.88;;;16.60;;
34673;SDS011;20879;55.668;37.858;2023-01-23T02:55:51;42.67;;;18.50;;
34673;SDS011;20879;55.668;37.858;2023-01-23T02:58:30;37.13;;;17.33;;
34673;SDS011;20879;55.668;37.858;2023-01-23T03:01:19;37.88;;;18.33;;
34673;SDS011;20879;55.668;37.858;2023-01-23T03:06:35;41.20;;;18.02;;
34673;SDS011;20879;55.668;37.858;2023-01-23T03:09:07;40.13;;;18.42;;
34673;SDS011;20879;55.668;37.858;2023-01-23T03:11:39;42.00;;;17.33;;
34673;SDS011;20879;55.668;37.858;2023-01-23T03:14:18;37.53;;;17.05;;
34673;SDS011;20879;55.668;37.858;2023-01-23T03:16:51;37.42;;;16.45;;
34673;SDS011;20879;55.668;37.858;2023-01-23T03:19:28;33.50;;;16.08;;
34673;SDS011;20879;55.668;37.858;2023-01-23T03:21:57;30.52;;;15.30;;
34673;SDS011;20879;55.668;37.858;2023-01-23T03:24:26;34.22;;;16.17;;
34673;SDS011;20879;55.668;37.858;2023-01-23T03:26:57;32.15;;;15.93;;
34673;SDS011;20879;55.668;37.858;2023-01-23T03:29:32;31.98;;;15.75;;
34673;SDS011;20879;55.668;37.858;2023-01-23T03:32:14;30.48;;;15.35;;
34673;SDS011;20879;55.668;37.858;2023-01-23T03:34:51;33.10;;;16.25;;
34673;SDS011;20879;55.668;37.858;2023-01-23T03:37:25;34.20;;;15.07;;
34673;SDS011;20879;55.668;37.858;2023-01-23T03:39:57;32.97;;;15.25;;
34673;SDS011;20879;55.668;37.858;2023-01-23T03:42:54;34.05;;;16.45;;
34673;SDS011;20879;55.668;37.858;2023-01-23T03:45:29;28.55;;;14.93;;
34673;SDS011;20879;55.668;37.858;2023-01-23T03:48:00;31.83;;;14.38;;
34673;SDS011;20879;55.668;37.858;2023-01-23T03:50:29;32.33;;;16.13;;
34673;SDS011;20879;55.668;37.858;2023-01-23T03:53:05;38.80;;;16.52;;
34673;SDS011;20879;55.668;37.858;2023-01-23T03:55:40;34.78;;;16.23;;
34673;SDS011;20879;55.668;37.858;2023-01-23T03:58:12;35.88;;;16.25;;
34673;SDS011;20879;55.668;37.858;2023-01-23T04:00:52;36.88;;;15.25;;
34673;SDS011;20879;55.668;37.858;2023-01-23T04:06:02;33.63;;;15.10;;
34673;SDS011;20879;55.668;37.858;2023-01-23T04:08:37;35.90;;;16.25;;
34673;SDS011;20879;55.668;37.858;2023-01-23T04:11:18;42.45;;;17.38;;
34673;SDS011;20879;55.668;37.858;2023-01-23T04:13:48;39.53;;;17.17;;
34673;SDS011;20879;55.668;37.858;2023-01-23T04:16:24;36.90;;;16.63;;
34673;SDS011;20879;55.668;37.858;2023-01-23T04:18:54;34.47;;;15.07;;
34673;SDS011;20879;55.668;37.858;2023-01-23T04:21:25;31.35;;;14.20;;
34673;SDS011;20879;55.668;37.858;2023-01-23T04:23:54;31.92;;;13.90;;
34673;SDS011;20879;55.668;37.858;2023-01-23T04:26:29;31.73;;;13.68;;
34673;SDS011;20879;55.668;37.858;2023-01-23T04:29:00;24.48;;;11.95;;
34673;SDS011;20879;55.668;37.858;2023-01-23T04:31:32;26.20;;;11.82;;
34673;SDS011;20879;55.668;37.858;2023-01-23T04:34:03;25.85;;;12.80;;
34673;SDS011;20879;55.668;37.858;2023-01-23T04:36:32;16.08;;;8.30;;
34673;SDS011;20879;55.668;37.858;2023-01-23T04:39:02;17.92;;;9.32;;
34673;SDS011;20879;55.668;37.858;2023-01-23T04:41:33;17.02;;;8.95;;
34673;SDS011;20879;55.668;37.858;2023-01-23T04:44:17;17.10;;;8.65;;
34673;SDS011;20879;55.668;37.858;2023-01-23T04:46:58;14.80;;;7.75;;
34673;SDS011;20879;55.668;37.858;2023-01-23T04:49:28;16.98;;;8.07;;
34673;SDS011;20879;55.668;37.858;2023-01-23T04:51:57;17.92;;;8.40;;
34673;SDS011;20879;55.668;37.858;2023-01-23T04:54:28;16.88;;;8.93;;
34673;SDS011;20879;55.668;37.858;2023-01-23T04:57:03;17.25;;;8.40;;
34673;SDS011;20879;55.668;37.858;2023-01-23T04:59:33;15.50;;;8.18;;
34673;SDS011;20879;55.668;37.858;2023-01-23T05:02:05;14.88;;;7.50;;
34673;SDS011;20879;55.668;37.858;2023-01-23T05:04:44;13.68;;;7.65;;
34673;SDS011;20879;55.668;37.858;2023-01-23T05:07:15;14.65;;;7.35;;
34673;SDS011;20879;55.668;37.858;2023-01-23T05:09:59;16.88;;;7.55;;
34673;SDS011;20879;55.668;37.858;2023-01-23T05:12:38;15.52;;;7.63;;
34673;SDS011;20879;55.668;37.858;2023-01-23T05:15:13;15.95;;;7.82;;
34673;SDS011;20879;55.668;37.858;2023-01-23T05:17:51;18.23;;;8.68;;
34673;SDS011;20879;55.668;37.858;2023-01-23T05:20:26;15.18;;;8.20;;
34673;SDS011;20879;55.668;37.858;2023-01-23T05:22:59;19.58;;;8.88;;
34673;SDS011;20879;55.668;37.858;2023-01-23T05:25:41;18.02;;;8.55;;
34673;SDS011;20879;55.668;37.858;2023-01-23T05:28:11;19.85;;;10.25;;
34673;SDS011;20879;55.668;37.858;2023-01-23T05:30:46;19.92;;;9.93;;
34673;SDS011;20879;55.668;37.858;2023-01-23T05:33:26;19.83;;;10.30;;
34673;SDS011;20879;55.668;37.858;2023-01-23T05:35:57;22.55;;;10.55;;
34673;SDS011;20879;55.668;37.858;2023-01-23T05:38:33;24.67;;;10.93;;
34673;SDS011;20879;55.668;37.858;2023-01-23T05:41:04;25.60;;;11.27;;
34673;SDS011;20879;55.668;37.858;2023-01-23T05:43:53;26.23;;;11.73;;
34673;SDS011;20879;55.668;37.858;2023-01-23T05:46:44;28.73;;;12.18;;
34673;SDS011;20879;55.668;37.858;2023-01-23T05:49:20;20.83;;;11.43;;
34673;SDS011;20879;55.668;37.858;2023-01-23T05:51:55;24.35;;;10.57;;
34673;SDS011;20879;55.668;37.858;2023-01-23T05:54:26;22.80;;;10.77;;
34673;SDS011;20879;55.668;37.858;2023-01-23T05:56:55;24.52;;;10.40;;
34673;SDS011;20879;55.668;37.858;2023-01-23T05:59:36;21.13;;;10.32;;
34673;SDS011;20879;55.668;37.858;2023-01-23T06:02:29;19.55;;;9.38;;
34673;SDS011;20879;55.668;37.858;2023-01-23T06:05:19;18.65;;;8.90;;
34673;SDS011;20879;55.668;37.858;2023-01-23T06:08:07;18.52;;;9.52;;
34673;SDS011;20879;55.668;37.858;2023-01-23T06:10:42;18.42;;;9.15;;
34673;SDS011;20879;55.668;37.858;2023-01-23T06:13:18;20.80;;;10.05;;
34673;SDS011;20879;55.668;37.858;2023-01-23T06:15:48;20.60;;;9.43;;
34673;SDS011;20879;55.668;37.858;2023-01-23T06:18:17;20.88;;;9.18;;
34673;SDS011;20879;55.668;37.858;2023-01-23T06:20:58;19.90;;;9.13;;
34673;SDS011;20879;55.668;37.858;2023-01-23T06:23:27;19.10;;;9.27;;
34673;SDS011;20879;55.668;37.858;2023-01-23T06:25:59;17.77;;;9.10;;
34673;SDS011;20879;55.668;37.858;2023-01-23T06:28:30;17.40;;;7.82;;
34673;SDS011;20879;55.668;37.858;2023-01-23T06:31:05;18.02;;;8.95;;
34673;SDS011;20879;55.668;37.858;2023-01-23T06:33:55;15.15;;;7.85;;
34673;SDS011;20879;55.668;37.858;2023-01-23T06:36:31;17.95;;;8.73;;
34673;SDS011;20879;55.668;37.858;2023-01-23T06:39:02;17.38;;;7.88;;
34673;SDS011;20879;55.668;37.858;2023-01-23T06:41:43;15.20;;;7.68;;
34673;SDS011;20879;55.668;37.858;2023-01-23T06:44:18;18.25;;;8.45;;
34673;SDS011;20879;55.668;37.858;2023-01-23T06:46:54;17.48;;;7.72;;
34673;SDS011;20879;55.668;37.858;2023-01-23T06:49:24;15.93;;;7.88;;
34673;SDS011;20879;55.668;37.858;2023-01-23T06:51:55;18.30;;;8.10;;
34673;SDS011;20879;55.668;37.858;2023-01-23T06:54:28;18.13;;;8.10;;
34673;SDS011;20879;55.668;37.858;2023-01-23T06:59:36;16.63;;;7.82;;
34673;SDS011;20879;55.668;37.858;2023-01-23T07:02:08;17.38;;;7.47;;
34673;SDS011;20879;55.668;37.858;2023-01-23T07:04:44;16.60;;;7.68;;
34673;SDS011;20879;55.668;37.858;2023-01-23T07:07:16;18.02;;;8.18;;
34673;SDS011;20879;55.668;37.858;2023-01-23T07:09:47;17.50;;;7.50;;
34673;SDS011;20879;55.668;37.858;2023-01-23T07:14:58;10.10;;;6.15;;
34673;SDS011;20879;55.668;37.858;2023-01-23T07:17:36;12.82;;;6.60;;
34673;SDS011;20879;55.668;37.858;2023-01-23T07:20:17;16.50;;;7.47;;
34673;SDS011;20879;55.668;37.858;2023-01-23T07:22:59;13.00;;;7.22;;
34673;SDS011;20879;55.668;37.858;2023-01-23T07:25:30;18.27;;;8.27;;
34673;SDS011;20879;55.668;37.858;2023-01-23T07:28:00;13.60;;;7.20;;
34673;SDS011;20879;55.668;37.858;2023-01-23T07:30:29;13.13;;;7.38;;
34673;SDS011;20879;55.668;37.858;2023-01-23T07:33:00;15.32;;;8.32;;
34673;SDS011;20879;55.668;37.858;2023-01-23T07:35:29;15.07;;;7.75;;
34673;SDS011;20879;55.668;37.858;2023-01-23T07:38:01;15.15;;;7.88;;
34673;SDS011;20879;55.668;37.858;2023-01-23T07:40:30;18.67;;;8.77;;
34673;SDS011;20879;55.668;37.858;2023-01-23T07:43:05;15.25;;;7.65;;
34673;SDS011;20879;55.668;37.858;2023-01-23T07:45:35;17.10;;;8.02;;
34673;SDS011;20879;55.668;37.858;2023-01-23T07:48:04;15.05;;;7.30;;
34673;SDS011;20879;55.668;37.858;2023-01-23T07:50:33;15.25;;;7.82;;
34673;SDS011;20879;55.668;37.858;2023-01-23T07:53:14;13.77;;;7.50;;
34673;SDS011;20879;55.668;37.858;2023-01-23T07:55:43;14.25;;;7.13;;
34673;SDS011;20879;55.668;37.858;2023-01-23T07:58:13;16.13;;;7.43;;
34673;SDS011;20879;55.668;37.858;2023-01-23T08:00:42;16.30;;;7.82;;
34673;SDS011;20879;55.668;37.858;2023-01-23T08:03:11;15.38;;;7.15;;
34673;SDS011;20879;55.668;37.858;2023-01-23T08:05:41;12.80;;;6.55;;
34673;SDS011;20879;55.668;37.858;2023-01-23T08:08:23;14.27;;;7.10;;
34673;SDS011;20879;55.668;37.858;2023-01-23T08:10:53;14.07;;;6.97;;
34673;SDS011;20879;55.668;37.858;2023-01-23T08:13:27;13.50;;;6.55;;
34673;SDS011;20879;55.668;37.858;2023-01-23T08:15:56;11.95;;;6.30;;
34673;SDS011;20879;55.668;37.858;2023-01-23T08:18:27;12.20;;;6.72;;
34673;SDS011;20879;55.668;37.858;2023-01-23T08:20:58;10.35;;;6.35;;
34673;SDS011;20879;55.668;37.858;2023-01-23T08:23:31;8.07;;;4.20;;
34673;SDS011;20879;55.668;37.858;2023-01-23T08:26:03;11.57;;;5.82;;
34673;SDS011;20879;55.668;37.858;2023-01-23T08:28:40;12.57;;;6.30;;
34673;SDS011;20879;55.668;37.858;2023-01-23T08:31:16;11.65;;;6.10;;
34673;SDS011;20879;55.668;37.858;2023-01-23T08:33:45;11.60;;;5.78;;
34673;SDS011;20879;55.668;37.858;2023-01-23T08:36:14;12.05;;;5.53;;
34673;SDS011;20879;55.668;37.858;2023-01-23T08:38:45;13.50;;;6.45;;
34673;SDS011;20879;55.668;37.858;2023-01-23T08:41:15;9.93;;;5.68;;
34673;SDS011;20879;55.668;37.858;2023-01-23T08:43:44;10.73;;;6.00;;
34673;SDS011;20879;55.668;37.858;2023-01-23T08:46:13;14.63;;;6.40;;
34673;SDS011;20879;55.668;37.858;2023-01-23T08:48:43;13.35;;;6.03;;
34673;SDS011;20879;55.668;37.858;2023-01-23T08:51:12;13.55;;;6.28;;
34673;SDS011;20879;55.668;37.858;2023-01-23T08:53:42;11.20;;;5.93;;
34673;SDS011;20879;55.668;37.858;2023-01-23T08:56:14;10.80;;;6.00;;
34673;SDS011;20879;55.668;37.858;2023-01-23T08:58:44;10.82;;;6.28;;
34673;SDS011;20879;55.668;37.858;2023-01-23T09:01:14;13.02;;;6.70;;
34673;SDS011;20879;55.668;37.858;2023-01-23T09:03:50;13.93;;;6.78;;
34673;SDS011;20879;55.668;37.858;2023-01-23T09:06:20;13.27;;;7.55;;
34673;SDS011;20879;55.668;37.858;2023-01-23T09:08:50;14.20;;;7.33;;
34673;SDS011;20879;55.668;37.858;2023-01-23T09:11:22;13.65;;;7.53;;
34673;SDS011;20879;55.668;37.858;2023-01-23T09:13:51;12.55;;;7.43;;
34673;SDS011;20879;55.668;37.858;2023-01-23T09:16:21;11.38;;;6.88;;
34673;SDS011;20879;55.668;37.858;2023-01-23T09:18:50;16.17;;;8.20;;
34673;SDS011;20879;55.668;37.858;2023-01-23T09:21:22;15.02;;;8.75;;
34673;SDS011;20879;55.668;37.858;2023-01-23T09:23:51;17.63;;;9.20;;
34673;SDS011;20879;55.668;37.858;2023-01-23T09:26:27;15.63;;;8.75;;
34673;SDS011;20879;55.668;37.858;2023-01-23T09:28:59;16.80;;;9.65;;
34673;SDS011;20879;55.668;37.858;2023-01-23T09:31:31;15.07;;;8.70;;
34673;SDS011;20879;55.668;37.858;2023-01-23T09:34:01;18.67;;;10.23;;
34673;SDS011;20879;55.668;37.858;2023-01-23T09:36:33;17.08;;;9.93;;
34673;SDS011;20879;55.668;37.858;2023-01-23T09:39:14;19.53;;;9.67;;
34673;SDS011;20879;55.668;37.858;2023-01-23T09:41:45;16.77;;;9.95;;
34673;SDS011;20879;55.668;37.858;2023-01-23T09:44:17;22.40;;;11.25;;
34673;SDS011;20879;55.668;37.858;2023-01-23T09:46:50;22.98;;;11.35;;
34673;SDS011;20879;55.668;37.858;2023-01-23T09:49:28;15.38;;;9.65;;
34673;SDS011;20879;55.668;37.858;2023-01-23T09:52:12;19.15;;;10.82;;
34673;SDS011;20879;55.668;37.858;2023-01-23T09:54:46;18.55;;;11.10;;
34673;SDS011;20879;55.668;37.858;2023-01-23T09:59:58;20.50;;;10.60;;
34673;SDS011;20879;55.668;37.858;2023-01-23T10:02:32;17.67;;;10.10;;
34673;SDS011;20879;55.668;37.858;2023-01-23T10:05:02;17.92;;;10.50;;
34673;SDS011;20879;55.668;37.858;2023-01-23T10:07:47;21.30;;;10.85;;
34673;SDS011;20879;55.668;37.858;2023-01-23T10:10:34;20.20;;;11.40;;
34673;SDS011;20879;55.668;37.858;2023-01-23T10:13:25;20.38;;;10.68;;
34673;SDS011;20879;55.668;37.858;2023-01-23T10:16:12;18.67;;;10.30;;
34673;SDS011;20879;55.668;37.858;2023-01-23T10:18:50;20.63;;;10.63;;
34673;SDS011;20879;55.668;37.858;2023-01-23T10:21:30;22.70;;;12.13;;
34673;SDS011;20879;55.668;37.858;2023-01-23T10:24:10;21.15;;;12.27;;
34673;SDS011;20879;55.668;37.858;2023-01-23T10:26:53;20.20;;;11.13;;
34673;SDS011;20879;55.668;37.858;2023-01-23T10:29:33;21.60;;;11.77;;
34673;SDS011;20879;55.668;37.858;2023-01-23T10:32:11;20.60;;;11.93;;
34673;SDS011;20879;55.668;37.858;2023-01-23T10:34:51;19.25;;;11.23;;
34673;SDS011;20879;55.668;37.858;2023-01-23T10:37:31;20.48;;;11.68;;
34673;SDS011;20879;55.668;37.858;2023-01-23T10:40:10;21.02;;;11.63;;
34673;SDS011;20879;55.668;37.858;2023-01-23T10:42:41;21.23;;;11.18;;
34673;SDS011;20879;55.668;37.858;2023-01-23T10:45:15;22.67;;;12.45;;
34673;SDS011;20879;55.668;37.858;2023-01-23T10:47:49;23.77;;;12.13;;
34673;SDS011;20879;55.668;37.858;2023-01-23T10:50:32;19.98;;;11.70;;
34673;SDS011;20879;55.668;37.858;2023-01-23T10:53:05;23.08;;;12.30;;
34673;SDS011;20879;55.668;37.858;2023-01-23T10:55:35;23.77;;;13.07;;
34673;SDS011;20879;55.668;37.858;2023-01-23T10:58:20;23.10;;;12.40;;
34673;SDS011;20879;55.668;37.858;2023-01-23T11:00:58;21.58;;;12.50;;
34673;SDS011;20879;55.668;37.858;2023-01-23T11:03:29;23.48;;;12.70;;
34673;SDS011;20879;55.668;37.858;2023-01-23T11:06:01;24.85;;;13.05;;
34673;SDS011;20879;55.668;37.858;2023-01-23T11:08:38;23.73;;;13.88;;
34673;SDS011;20879;55.668;37.858;2023-01-23T11:11:18;29.02;;;14.68;;
34673;SDS011;20879;55.668;37.858;2023-01-23T11:17:00;26.30;;;14.05;;
34673;SDS011;20879;55.668;37.858;2023-01-23T11:19:39;25.63;;;14.05;;
34673;SDS011;20879;55.668;37.858;2023-01-23T11:22:28;25.00;;;12.95;;
34673;SDS011;20879;55.668;37.858;2023-01-23T11:24:59;28.73;;;14.18;;
34673;SDS011;20879;55.668;37.858;2023-01-23T11:30:15;26.08;;;13.23;;
34673;SDS011;20879;55.668;37.858;2023-01-23T11:35:28;25.45;;;12.95;;
34673;SDS011;20879;55.668;37.858;2023-01-23T11:38:13;25.83;;;13.13;;
34673;SDS011;20879;55.668;37.858;2023-01-23T11:40:53;25.42;;;13.68;;
34673;SDS011;20879;55.668;37.858;2023-01-23T11:43:22;26.65;;;13.43;;
34673;SDS011;20879;55.668;37.858;2023-01-23T11:45:59;26.60;;;14.32;;
34673;SDS011;20879;55.668;37.858;2023-01-23T11:48:55;23.92;;;12.88;;
34673;SDS011;20879;55.668;37.858;2023-01-23T11:51:37;25.80;;;13.43;;
34673;SDS011;20879;55.668;37.858;2023-01-23T11:54:17;26.35;;;13.23;;
34673;SDS011;20879;55.668;37.858;2023-01-23T11:57:06;23.30;;;13.32;;
34673;SDS011;20879;55.668;37.858;2023-01-23T11:59:51;26.52;;;14.18;;
34673;SDS011;20879;55.668;37.858;2023-01-23T12:02:46;23.27;;;12.88;;
34673;SDS011;20879;55.668;37.858;2023-01-23T12:05:39;28.40;;;15.38;;
34673;SDS011;20879;55.668;37.858;2023-01-23T12:08:36;30.92;;;15.07;;
34673;SDS011;20879;55.668;37.858;2023-01-23T12:11:15;29.17;;;13.80;;
34673;SDS011;20879;55.668;37.858;2023-01-23T12:13:55;29.65;;;15.00;;
34673;SDS011;20879;55.668;37.858;2023-01-23T12:16:38;29.52;;;15.07;;
34673;SDS011;20879;55.668;37.858;2023-01-23T12:19:20;27.90;;;14.68;;
34673;SDS011;20879;55.668;37.858;2023-01-23T12:22:11;30.70;;;15.05;;
34673;SDS011;20879;55.668;37.858;2023-01-23T12:24:50;27.85;;;14.07;;
34673;SDS011;20879;55.668;37.858;2023-01-23T12:27:33;29.98;;;14.40;;
34673;SDS011;20879;55.668;37.858;2023-01-23T12:30:18;26.35;;;13.63;;
34673;SDS011;20879;55.668;37.858;2023-01-23T12:35:43;26.75;;;13.30;;
34673;SDS011;20879;55.668;37.858;2023-01-23T12:38:25;30.75;;;14.82;;
34673;SDS011;20879;55.668;37.858;2023-01-23T12:41:08;29.38;;;13.52;;
34673;SDS011;20879;55.668;37.858;2023-01-23T12:43:49;30.60;;;14.80;;
34673;SDS011;20879;55.668;37.858;2023-01-23T12:54:00;25.25;;;11.98;;
34673;SDS011;20879;55.668;37.858;2023-01-23T12:56:35;26.15;;;12.50;;
34673;SDS011;20879;55.668;37.858;2023-01-23T12:59:09;29.58;;;13.93;;
34673;SDS011;20879;55.668;37.858;2023-01-23T13:01:53;28.23;;;13.43;;
34673;SDS011;20879;55.668;37.858;2023-01-23T13:04:38;26.85;;;13.00;;
34673;SDS011;20879;55.668;37.858;2023-01-23T13:07:21;28.05;;;13.70;;
34673;SDS011;20879;55.668;37.858;2023-01-23T13:10:09;26.75;;;13.35;;
34673;SDS011;20879;55.668;37.858;2023-01-23T13:12:51;28.88;;;13.90;;
34673;SDS011;20879;55.668;37.858;2023-01-23T13:15:30;31.33;;;14.73;;
34673;SDS011;20879;55.668;37.858;2023-01-23T13:18:18;27.92;;;14.25;;
34673;SDS011;20879;55.668;37.858;2023-01-23T13:20:54;32.95;;;14.65;;
34673;SDS011;20879;55.668;37.858;2023-01-23T13:23:39;31.20;;;14.50;;
34673;SDS011;20879;55.668;37.858;2023-01-23T13:29:03;39.90;;;15.60;;
34673;SDS011;20879;55.668;37.858;2023-01-23T13:31:40;32.42;;;14.80;;
34673;SDS011;20879;55.668;37.858;2023-01-23T13:40:22;34.70;;;14.57;;
34673;SDS011;20879;55.668;37.858;2023-01-23T13:42:59;31.17;;;15.27;;
34673;SDS011;20879;55.668;37.858;2023-01-23T13:46:03;32.85;;;14.93;;
34673;SDS011;20879;55.668;37.858;2023-01-23T13:51:49;34.15;;;15.25;;
34673;SDS011;20879;55.668;37.858;2023-01-23T13:54:32;33.67;;;15.38;;
34673;SDS011;20879;55.668;37.858;2023-01-23T13:57:30;35.72;;;15.88;;
34673;SDS011;20879;55.668;37.858;2023-01-23T14:00:16;35.30;;;15.95;;
34673;SDS011;20879;55.668;37.858;2023-01-23T14:03:26;31.13;;;14.43;;
34673;SDS011;20879;55.668;37.858;2023-01-23T14:06:31;36.65;;;16.42;;
34673;SDS011;20879;55.668;37.858;2023-01-23T14:09:27;27.40;;;12.00;;
34673;SDS011;20879;55.668;37.858;2023-01-23T14:12:12;37.63;;;16.40;;
34673;SDS011;20879;55.668;37.858;2023-01-23T14:18:35;34.92;;;15.88;;
34673;SDS011;20879;55.668;37.858;2023-01-23T14:21:21;42.42;;;16.42;;
34673;SDS011;20879;55.668;37.858;2023-01-23T14:24:17;37.65;;;15.77;;
34673;SDS011;20879;55.668;37.858;2023-01-23T14:26:51;34.78;;;15.98;;
34673;SDS011;20879;55.668;37.858;2023-01-23T14:29:33;35.35;;;15.68;;
34673;SDS011;20879;55.668;37.858;2023-01-23T14:32:03;31.88;;;15.52;;
34673;SDS011;20879;55.668;37.858;2023-01-23T14:34:37;32.53;;;15.30;;
34673;SDS011;20879;55.668;37.858;2023-01-23T14:37:12;38.17;;;16.63;;
34673;SDS011;20879;55.668;37.858;2023-01-23T14:39:43;37.75;;;16.42;;
34673;SDS011;20879;55.668;37.858;2023-01-23T14:42:29;36.33;;;16.85;;
34673;SDS011;20879;55.668;37.858;2023-01-23T14:45:00;40.33;;;17.52;;
34673;SDS011;20879;55.668;37.858;2023-01-23T14:47:30;39.15;;;17.50;;
34673;SDS011;20879;55.668;37.858;2023-01-23T14:50:07;36.20;;;17.42;;
34673;SDS011;20879;55.668;37.858;2023-01-23T14:52:38;38.63;;;18.25;;
34673;SDS011;20879;55.668;37.858;2023-01-23T14:55:17;38.88;;;17.92;;
34673;SDS011;20879;55.668;37.858;2023-01-23T14:57:58;32.97;;;16.70;;
34673;SDS011;20879;55.668;37.858;2023-01-23T15:00:29;40.72;;;17.95;;
34673;SDS011;20879;55.668;37.858;2023-01-23T15:02:58;35.65;;;17.67;;
34673;SDS011;20879;55.668;37.858;2023-01-23T15:05:31;42.03;;;18.52;;
34673;SDS011;20879;55.668;37.858;2023-01-23T15:08:05;37.03;;;18.02;;
34673;SDS011;20879;55.668;37.858;2023-01-23T15:10:46;37.25;;;18.40;;
34673;SDS011;20879;55.668;37.858;2023-01-23T15:13:19;36.88;;;18.33;;
34673;SDS011;20879;55.668;37.858;2023-01-23T15:15:59;36.75;;;17.52;;
34673;SDS011;20879;55.668;37.858;2023-01-23T15:21:31;41.97;;;18.17;;
34673;SDS011;20879;55.668;37.858;2023-01-23T15:24:04;37.40;;;17.98;;
34673;SDS011;20879;55.668;37.858;2023-01-23T15:26:57;40.10;;;17.80;;
34673;SDS011;20879;55.668;37.858;2023-01-23T15:29:30;39.28;;;18.02;;
34673;SDS011;20879;55.668;37.858;2023-01-23T15:32:12;40.58;;;18.00;;
34673;SDS011;20879;55.668;37.858;2023-01-23T15:34:53;36.55;;;17.65;;
34673;SDS011;20879;55.668;37.858;2023-01-23T15:37:32;37.17;;;17.58;;
34673;SDS011;20879;55.668;37.858;2023-01-23T15:40:02;35.17;;;16.42;;
34673;SDS011;20879;55.668;37.858;2023-01-23T15:42:59;36.50;;;16.42;;
34673;SDS011;20879;55.668;37.858;2023-01-23T15:45:34;37.83;;;16.77;;
34673;SDS011;20879;55.668;37.858;2023-01-23T15:48:04;34.55;;;16.55;;
34673;SDS011;20879;55.668;37.858;2023-01-23T15:50:34;36.65;;;17.48;;
34673;SDS011;20879;55.668;37.858;2023-01-23T15:53:11;36.22;;;16.75;;
34673;SDS011;20879;55.668;37.858;2023-01-23T15:55:47;33.58;;;16.98;;
34673;SDS011;20879;55.668;37.858;2023-01-23T15:58:16;32.90;;;16.35;;